createdAt,value
2023-03-19T00:02:59.170Z,21.43
2023-03-19T00:09:10.865Z,14.13
2023-03-19T00:14:40.986Z,13.53
2023-03-19T00:19:56.204Z,14.70
2023-03-19T00:25:01.221Z,14.13
2023-03-19T00:35:23.942Z,14.23
2023-03-19T00:40:26.087Z,13.37
2023-03-19T00:45:30.604Z,12.80
2023-03-19T00:50:32.810Z,13.03
2023-03-19T00:55:40.141Z,14.10
2023-03-19T01:00:45.054Z,12.23
2023-03-19T01:05:53.348Z,14.17
2023-03-19T01:11:08.104Z,14.20
2023-03-19T01:16:12.887Z,11.93
2023-03-19T01:21:14.870Z,12.53
2023-03-19T01:26:20.081Z,12.20
2023-03-19T01:31:23.159Z,11.80
2023-03-19T01:36:52.882Z,12.60
2023-03-19T01:41:56.342Z,12.80
2023-03-19T01:47:10.209Z,12.00
2023-03-19T01:52:13.877Z,12.47
2023-03-19T01:57:16.861Z,12.13
2023-03-19T02:02:21.845Z,13.00
2023-03-19T02:07:46.148Z,11.43
2023-03-19T02:13:13.775Z,11.77
2023-03-19T02:18:21.520Z,11.07
2023-03-19T02:24:40.906Z,10.90
2023-03-19T02:29:50.521Z,12.13
2023-03-19T02:34:56.163Z,10.60
2023-03-19T02:40:04.491Z,12.37
2023-03-19T02:45:12.021Z,11.60
2023-03-19T02:55:32.477Z,12.53
2023-03-19T03:00:43.071Z,11.40
2023-03-19T03:05:50.394Z,10.67
2023-03-19T03:10:54.797Z,13.53
2023-03-19T03:15:59.858Z,12.40
2023-03-19T03:21:04.482Z,12.23
2023-03-19T03:26:07.518Z,11.20
2023-03-19T03:31:14.719Z,12.67
2023-03-19T03:36:20.310Z,10.90
2023-03-19T03:41:25.386Z,10.93
2023-03-19T03:46:32.432Z,10.77
2023-03-19T03:51:36.811Z,11.23
2023-03-19T03:56:41.174Z,11.17
2023-03-19T04:08:03.392Z,10.33
2023-03-19T04:13:10.315Z,11.03
2023-03-19T04:18:17.169Z,11.43
2023-03-19T04:23:20.316Z,10.33
2023-03-19T04:28:22.201Z,10.70
2023-03-19T04:33:33.088Z,10.27
2023-03-19T04:38:44.077Z,9.73
2023-03-19T04:43:48.012Z,9.77
2023-03-19T04:48:55.062Z,10.43
2023-03-19T04:54:02.699Z,10.23
2023-03-19T04:59:06.906Z,10.30
2023-03-19T05:04:21.598Z,11.03
2023-03-19T05:09:23.406Z,9.50
2023-03-19T05:14:29.172Z,10.90
2023-03-19T05:19:33.974Z,9.60
2023-03-19T05:24:40.868Z,10.60
2023-03-19T05:29:45.069Z,10.57
2023-03-19T05:34:54.579Z,10.00
2023-03-19T05:39:58.741Z,10.37
2023-03-19T05:45:03.214Z,11.10
2023-03-19T05:50:19.184Z,9.37
2023-03-19T05:55:26.281Z,9.93
2023-03-19T06:00:35.024Z,9.50
2023-03-19T06:05:41.051Z,10.40
2023-03-19T06:10:42.899Z,10.90
2023-03-19T06:15:56.948Z,10.87
2023-03-19T06:21:01.579Z,9.67
2023-03-19T06:26:08.292Z,9.97
2023-03-19T06:31:17.177Z,10.90
2023-03-19T06:36:26.639Z,10.77
2023-03-19T06:41:36.627Z,10.93
2023-03-19T06:46:53.182Z,9.67
2023-03-19T06:51:55.107Z,10.40
2023-03-19T06:57:00.133Z,10.43
2023-03-19T07:02:09.928Z,10.70
2023-03-19T07:07:25.061Z,10.37
2023-03-19T07:12:32.744Z,11.03
2023-03-19T07:17:34.618Z,10.23
2023-03-19T07:22:38.123Z,11.27
2023-03-19T07:27:42.121Z,10.17
2023-03-19T07:32:47.143Z,10.50
2023-03-19T07:37:51.095Z,11.23
2023-03-19T07:42:54.550Z,9.03
2023-03-19T07:47:56.374Z,9.03
2023-03-19T07:52:58.204Z,8.23
2023-03-19T07:58:02.020Z,6.63
2023-03-19T08:03:06.694Z,6.33
2023-03-19T08:08:08.705Z,6.53
2023-03-19T08:13:14.226Z,5.63
2023-03-19T08:18:19.855Z,4.27
2023-03-19T08:23:34.960Z,5.23
2023-03-19T08:28:37.380Z,4.63
2023-03-19T08:33:39.627Z,3.17
2023-03-19T08:39:18.633Z,3.90
2023-03-19T08:44:23.456Z,3.03
2023-03-19T08:49:27.166Z,5.57
2023-03-19T08:54:34.171Z,3.60
2023-03-19T08:59:39.261Z,3.00
2023-03-19T09:04:56.519Z,5.23
2023-03-19T09:10:01.428Z,4.73
2023-03-19T09:15:05.735Z,4.47
2023-03-19T09:20:10.049Z,3.77
2023-03-19T09:25:15.856Z,4.80
2023-03-19T09:30:20.615Z,4.20
2023-03-19T09:35:24.447Z,6.47
2023-03-19T09:40:56.027Z,6.13
2023-03-19T09:46:08.268Z,7.60
2023-03-19T09:51:18.574Z,5.37
2023-03-19T09:56:21.807Z,5.63
2023-03-19T10:01:35.714Z,5.10
2023-03-19T10:06:42.475Z,5.63
2023-03-19T10:12:14.945Z,8.57
2023-03-19T10:18:23.804Z,5.13
2023-03-19T10:23:46.526Z,5.10
2023-03-19T10:42:04.325Z,4.33
2023-03-19T10:53:37.472Z,5.90
2023-03-19T10:59:12.798Z,5.10
2023-03-19T11:04:32.228Z,5.83
2023-03-19T11:10:13.054Z,7.83
2023-03-19T11:15:28.588Z,5.70
2023-03-19T11:21:26.703Z,6.73
2023-03-19T11:26:34.167Z,8.00
2023-03-19T11:32:23.448Z,6.90
2023-03-19T11:38:29.251Z,6.13
2023-03-19T11:50:18.764Z,6.83
2023-03-19T12:02:19.488Z,5.73
2023-03-19T12:07:24.728Z,7.10
2023-03-19T12:26:11.853Z,10.17
2023-03-19T12:32:26.989Z,5.23
2023-03-19T12:38:40.805Z,6.97
2023-03-19T12:50:52.523Z,4.97
2023-03-19T13:03:12.331Z,5.70
2023-03-19T13:08:37.518Z,5.50
2023-03-19T13:13:43.337Z,5.17
2023-03-19T13:30:18.656Z,4.67
2023-03-19T13:35:41.728Z,5.50
2023-03-19T13:46:44.823Z,6.17
2023-03-19T13:51:51.571Z,5.43
2023-03-19T13:57:36.299Z,5.23
2023-03-19T14:02:41.138Z,4.57
2023-03-19T14:08:18.474Z,4.00
2023-03-19T14:13:28.561Z,3.90
2023-03-19T14:18:33.829Z,3.80
2023-03-19T14:23:43.082Z,2.40
2023-03-19T14:28:49.606Z,3.80
2023-03-19T14:34:23.977Z,3.17
2023-03-19T14:45:53.627Z,2.80
2023-03-19T15:03:37.260Z,4.63
2023-03-19T15:09:09.658Z,7.40
2023-03-19T15:20:42.206Z,4.73
2023-03-19T15:25:52.554Z,6.83
2023-03-19T15:31:26.262Z,10.37
2023-03-19T15:36:31.744Z,13.27
2023-03-19T15:41:41.749Z,15.23
2023-03-19T15:46:49.110Z,15.40
2023-03-19T15:51:53.967Z,21.50
2023-03-19T16:16:27.582Z,12.10
2023-03-19T16:21:47.480Z,13.23
2023-03-19T16:27:39.089Z,12.57
2023-03-19T16:32:47.821Z,10.63
2023-03-19T16:38:25.124Z,10.80
2023-03-19T17:02:44.689Z,10.07
2023-03-19T17:07:53.484Z,8.53
2023-03-19T17:13:03.186Z,7.97
2023-03-19T17:18:16.959Z,10.00
2023-03-19T17:23:19.175Z,7.43
2023-03-19T17:28:30.425Z,8.60
2023-03-19T17:33:39.296Z,6.83
2023-03-19T17:38:55.316Z,5.23
2023-03-19T17:49:31.902Z,8.63
2023-03-19T17:54:33.760Z,6.00
2023-03-19T17:59:35.633Z,5.87
2023-03-19T18:04:37.474Z,5.73
2023-03-19T18:09:41.819Z,5.03
2023-03-19T18:14:43.636Z,4.90
2023-03-19T18:19:52.728Z,5.33
2023-03-19T18:24:57.238Z,4.40
2023-03-19T18:29:59.001Z,7.10
2023-03-19T18:35:03.299Z,4.13
2023-03-19T18:40:09.246Z,4.50
2023-03-19T18:45:20.423Z,5.90
2023-03-19T18:50:35.088Z,4.27
2023-03-19T18:55:41.595Z,5.27
2023-03-19T19:00:45.863Z,5.97
2023-03-19T19:05:52.310Z,8.57
2023-03-19T19:10:55.849Z,6.50
2023-03-19T19:16:00.877Z,7.00
2023-03-19T19:21:02.879Z,6.37
2023-03-19T19:26:07.983Z,7.40
2023-03-19T19:31:30.455Z,8.37
2023-03-19T19:36:38.689Z,8.67
2023-03-19T19:41:43.124Z,8.87
2023-03-19T19:46:58.378Z,9.37
2023-03-19T19:52:02.877Z,8.77
2023-03-19T19:57:11.327Z,7.73
2023-03-19T20:02:33.793Z,11.57
2023-03-19T20:07:39.327Z,11.50
2023-03-19T20:12:44.815Z,12.47
2023-03-19T20:17:49.941Z,11.93
2023-03-19T20:22:52.488Z,14.37
2023-03-19T20:28:08.203Z,13.07
2023-03-19T20:38:44.226Z,14.67
2023-03-19T20:43:50.690Z,13.93
2023-03-19T20:49:01.356Z,16.43
2023-03-19T20:54:21.364Z,16.90
2023-03-19T20:59:29.025Z,25.30
2023-03-19T21:04:33.961Z,24.03
2023-03-19T21:09:41.397Z,27.47
2023-03-19T21:14:45.216Z,29.57
2023-03-19T21:19:50.327Z,33.73
2023-03-19T21:25:14.426Z,30.07
2023-03-19T21:30:33.238Z,32.77
2023-03-19T21:35:38.331Z,31.00
2023-03-19T21:40:48.592Z,28.73
2023-03-19T21:46:24.709Z,30.50
2023-03-19T21:57:41.369Z,28.10
2023-03-19T22:08:21.528Z,29.83
2023-03-19T22:13:33.433Z,28.20
2023-03-19T22:19:07.720Z,27.43
2023-03-19T22:24:15.485Z,28.20
2023-03-19T22:29:35.880Z,27.57
2023-03-19T22:34:40.862Z,26.53
2023-03-19T22:39:45.368Z,27.77
2023-03-19T22:44:59.324Z,27.63
2023-03-19T22:50:13.170Z,27.07
2023-03-19T22:55:19.650Z,26.77
2023-03-19T23:00:25.923Z,27.03
2023-03-19T23:05:33.357Z,28.50
2023-03-19T23:10:46.045Z,30.20
2023-03-19T23:16:01.697Z,25.60
2023-03-19T23:21:08.911Z,25.73
2023-03-19T23:26:37.587Z,28.70
2023-03-19T23:31:41.899Z,28.90
2023-03-19T23:36:48.761Z,21.23
2023-03-19T23:41:55.401Z,13.80
2023-03-19T23:47:02.909Z,14.23
2023-03-19T23:52:21.281Z,17.50
2023-03-19T23:57:29.083Z,19.33
